GMMC/CAS METAR and TAF weather

Enter ICAO airport designator
Station Type Date Time Source
GMMC METAR 2022/06/27 08:00 UTC NOAA

GMMC 270800Z 04006KT 8000 FEW016 SCT026 21/14 Q1019


Station Type Date Time Source
GMMC Decoded METAR 2022/06/27 08:00 UTC NOAA

Casablanca, Morocco (GMMC) 33-34N 007-40W 62M
Jun 27, 2022 - 04:00 AM EDT / 2022.06.27 0800 UTC
Wind: from the NE (040 degrees) at 7 MPH (6 KT):0
Visibility: 4 mile(s):0
Sky conditions: partly cloudy
Temperature: 69 F (21 C)
Dew Point: 57 F (14 C)
Relative Humidity: 64%
Pressure (altimeter): 30.09 in. Hg (1019 hPa)
ob: GMMC 270800Z 04006KT 8000 FEW016 SCT026 21/14 Q1019
cycle: 8

Station Type Date Time Source
GMMC TAF 2016/05/22 17:00 UTC NOAA

FTMC31 GMMC 221700 RRA TAF LPPT 221700Z 2218/2324 34013KT CAVOK
BECMG 2221/2224 34007KT
BECMG 2310/2312 VRB03KT

Example: see airport list